Time;durP1;ratioP1;P1;durP2;ratioP2;P2;SDS_P1;SDS_P2;PMS_P1;PMS_P2;Temp;Humidity;BMP_temperature;BMP_pressure;BME280_temperature;BME280_humidity;BME280_pressure;Samples;Min_cycle;Max_cycle;Signal;HPM_P1;HPM_P2
2022/10/31 00:00:59;;;;;;;10.18;6.32;;;;;;;13.32;79.30;99225.97;5025906;28;20031;-82
2022/10/31 00:03:26;;;;;;;10.30;7.35;;;;;;;13.67;78.35;99254.13;5013720;28;20037;-83
2022/10/31 00:05:52;;;;;;;12.30;6.85;;;;;;;13.49;78.72;99236.56;5014566;28;20037;-83
2022/10/31 00:08:18;;;;;;;11.50;6.43;;;;;;;13.44;78.49;99233.84;5008179;28;20121;-83
2022/10/31 00:10:45;;;;;;;9.40;5.47;;;;;;;13.60;78.15;99253.53;5029803;28;20100;-82
2022/10/31 00:13:11;;;;;;;8.73;6.25;;;;;;;13.59;78.01;99259.94;5012813;28;20059;-82
2022/10/31 00:15:38;;;;;;;14.80;7.03;;;;;;;13.60;78.39;99266.94;5007863;28;20055;-83
2022/10/31 00:18:05;;;;;;;8.48;6.13;;;;;;;12.94;80.15;99265.53;5007088;28;20026;-83
2022/10/31 00:20:31;;;;;;;10.40;5.68;;;;;;;13.33;79.69;99270.50;5012754;28;20032;-82
2022/10/31 00:23:01;;;;;;;11.75;6.10;;;;;;;13.18;79.97;99269.56;5013264;28;20037;-83
2022/10/31 00:25:28;;;;;;;12.05;7.53;;;;;;;12.43;81.50;99264.19;5010466;28;20044;-83
2022/10/31 00:27:54;;;;;;;8.63;5.82;;;;;;;12.91;80.98;99250.78;5031455;28;20022;-82
2022/10/31 00:30:19;;;;;;;11.95;6.93;;;;;;;13.23;79.88;99272.28;5028918;28;20337;-82
2022/10/31 00:32:44;;;;;;;12.05;6.95;;;;;;;12.52;81.32;99271.53;5031637;28;20026;-82
2022/10/31 00:35:10;;;;;;;11.30;5.72;;;;;;;13.09;80.98;99287.97;4974052;28;20061;-83
2022/10/31 00:37:35;;;;;;;8.05;6.63;;;;;;;13.38;79.05;99273.22;5010068;28;20506;-82
2022/10/31 00:40:01;;;;;;;8.43;5.93;;;;;;;13.25;78.97;99280.88;5008315;28;20124;-83
2022/10/31 00:42:26;;;;;;;11.60;6.05;;;;;;;13.14;79.17;99263.91;5030885;28;20033;-83
2022/10/31 00:44:52;;;;;;;6.15;5.43;;;;;;;13.15;79.51;99278.91;5027019;28;20033;-83
2022/10/31 00:47:17;;;;;;;14.43;7.10;;;;;;;12.36;81.11;99283.09;5027839;28;20432;-82
2022/10/31 00:49:42;;;;;;;8.93;6.13;;;;;;;12.51;81.95;99290.53;5007244;28;20028;-82
2022/10/31 00:52:08;;;;;;;11.52;6.40;;;;;;;12.91;80.15;99279.47;5007023;28;20083;-83
2022/10/31 00:54:33;;;;;;;13.57;7.40;;;;;;;12.48;81.40;99278.44;5030332;28;20064;-83
2022/10/31 00:56:58;;;;;;;9.32;5.85;;;;;;;13.00;79.92;99267.19;5028772;28;20107;-82
2022/10/31 00:59:24;;;;;;;15.70;7.20;;;;;;;13.30;79.07;99278.25;5000923;28;20171;-82
2022/10/31 01:01:49;;;;;;;9.50;6.03;;;;;;;13.07;79.60;99275.88;5012462;28;20127;-82
2022/10/31 01:04:15;;;;;;;9.20;5.80;;;;;;;13.21;78.94;99274.41;4988366;28;20037;-82
2022/10/31 01:06:40;;;;;;;11.85;6.10;;;;;;;13.23;78.89;99291.06;4995186;28;20041;-82
2022/10/31 01:09:05;;;;;;;11.57;6.20;;;;;;;13.03;79.24;99272.88;5029284;28;20026;-83
2022/10/31 01:11:31;;;;;;;13.20;6.95;;;;;;;13.07;79.52;99300.81;5029289;28;20032;-83
2022/10/31 01:13:56;;;;;;;7.65;5.45;;;;;;;12.82;80.19;99275.63;5011401;28;20060;-82
2022/10/31 01:16:25;;;;;;;16.52;7.72;;;;;;;12.72;80.14;99297.72;5027913;28;20370;-83
2022/10/31 01:18:51;;;;;;;8.63;6.90;;;;;;;12.73;80.70;99294.78;5027766;28;20044;-83
2022/10/31 01:21:19;;;;;;;9.23;7.45;;;;;;;12.82;80.11;99297.03;5025373;28;20678;-82
2022/10/31 01:23:45;;;;;;;9.02;5.95;;;;;;;13.22;79.88;99298.28;5004131;28;20778;-82
2022/10/31 01:26:14;;;;;;;11.48;5.82;;;;;;;13.00;79.09;99300.16;4995796;28;20037;-82
2022/10/31 01:28:48;;;;;;;11.30;6.25;;;;;;;12.65;80.02;99297.09;4991080;28;20057;-83
2022/10/31 01:31:16;;;;;;;13.00;7.07;;;;;;;12.84;79.71;99305.63;5023681;28;20476;-82
2022/10/31 01:33:42;;;;;;;7.90;5.53;;;;;;;12.85;79.33;99304.56;5013722;28;20057;-82
2022/10/31 01:36:21;;;;;;;13.05;6.65;;;;;;;12.78;80.03;99289.50;5029477;28;20049;-82
2022/10/31 01:38:48;;;;;;;9.43;6.32;;;;;;;12.89;79.92;99298.44;5026395;28;20037;-82
2022/10/31 01:41:17;;;;;;;8.23;6.35;;;;;;;12.38;81.34;99304.28;5024071;28;20389;-82
2022/10/31 01:43:52;;;;;;;9.98;6.13;;;;;;;12.49;80.94;99279.28;5027712;28;20025;-83
2022/10/31 01:46:22;;;;;;;8.60;6.28;;;;;;;12.34;81.54;99295.94;5008871;28;20038;-83
2022/10/31 01:48:48;;;;;;;10.27;5.78;;;;;;;12.37;81.51;99289.28;5021302;28;20045;-83
2022/10/31 01:51:17;;;;;;;6.88;5.32;;;;;;;12.59;80.77;99282.88;5009706;28;20060;-83
2022/10/31 01:53:44;;;;;;;11.13;6.30;;;;;;;12.55;80.55;99279.06;4993011;28;20396;-82
2022/10/31 01:56:12;;;;;;;9.50;6.20;;;;;;;12.67;80.21;99289.63;5023797;28;20127;-82
2022/10/31 01:58:39;;;;;;;11.07;7.70;;;;;;;11.22;85.47;99305.19;5006627;28;20121;-83
2022/10/31 02:01:05;;;;;;;15.55;6.05;;;;;;;11.87;84.93;99300.13;5027800;28;20049;-82
2022/10/31 02:03:31;;;;;;;17.80;8.57;;;;;;;11.79;83.09;99305.88;5025544;28;20029;-82
2022/10/31 02:05:58;;;;;;;9.32;6.93;;;;;;;11.30;85.00;99304.78;5009471;28;20033;-83
2022/10/31 02:08:27;;;;;;;12.95;7.70;;;;;;;11.58;84.28;99304.72;5028373;28;20446;-83
2022/10/31 02:10:53;;;;;;;12.93;6.80;;;;;;;11.46;85.92;99305.84;5027799;28;20405;-83
2022/10/31 02:13:20;;;;;;;11.30;6.90;;;;;;;12.23;81.68;99290.72;5025040;28;20034;-82
2022/10/31 02:15:51;;;;;;;10.18;6.55;;;;;;;11.69;82.73;99303.03;5002075;28;20084;-82
2022/10/31 02:18:18;;;;;;;9.57;5.63;;;;;;;12.32;81.02;99302.63;5010810;28;20042;-83
2022/10/31 02:20:59;;;;;;;10.23;6.45;;;;;;;11.90;83.06;99321.03;5010936;28;20044;-83
2022/10/31 02:23:45;;;;;;;12.18;6.78;;;;;;;12.41;81.75;99322.53;5009673;28;20025;-82
2022/10/31 02:26:51;;;;;;;12.63;6.78;;;;;;;12.58;80.36;99318.72;5026595;28;20052;-83
2022/10/31 02:29:27;;;;;;;10.07;5.93;;;;;;;12.56;80.54;99330.75;5027784;28;20033;-83
2022/10/31 02:32:03;;;;;;;12.05;5.50;;;;;;;12.58;79.78;99304.56;5026954;28;20036;-83
2022/10/31 02:34:47;;;;;;;15.20;6.80;;;;;;;12.55;79.76;99334.50;5024540;28;20030;-82
2022/10/31 02:37:24;;;;;;;8.85;6.28;;;;;;;12.28;80.92;99321.03;5024603;28;20037;-83
2022/10/31 02:40:08;;;;;;;11.32;7.13;;;;;;;12.31;80.94;99330.44;5029564;28;20034;-82
2022/10/31 02:42:46;;;;;;;10.52;6.03;;;;;;;12.45;80.21;99321.00;5023012;28;20029;-83
2022/10/31 02:45:20;;;;;;;10.70;7.07;;;;;;;12.35;80.50;99315.50;5023074;28;20026;-82
2022/10/31 02:47:48;;;;;;;9.57;5.80;;;;;;;12.49;80.25;99336.28;5007837;28;20033;-82
2022/10/31 02:50:26;;;;;;;12.05;5.57;;;;;;;12.31;81.09;99309.00;5025261;28;21647;-82
2022/10/31 02:52:52;;;;;;;11.35;6.18;;;;;;;12.31;80.11;99312.50;5025558;28;20418;-83
2022/10/31 02:55:27;;;;;;;15.32;6.80;;;;;;;11.73;81.93;99326.38;4994904;28;20033;-82
2022/10/31 02:57:56;;;;;;;13.23;7.43;;;;;;;11.32;84.04;99329.41;5026352;28;20032;-83
2022/10/31 03:00:22;;;;;;;17.58;7.20;;;;;;;11.49;84.81;99335.56;5006851;28;20044;-82
2022/10/31 03:03:13;;;;;;;10.88;6.32;;;;;;;12.26;81.35;99325.00;5025308;28;20034;-83
2022/10/31 03:06:06;;;;;;;9.50;6.35;;;;;;;12.10;82.09;99326.66;5023935;28;20087;-82
2022/10/31 03:08:32;;;;;;;10.65;6.40;;;;;;;12.40;80.56;99323.59;5022969;28;20504;-82
2022/10/31 03:11:02;;;;;;;11.63;6.50;;;;;;;12.32;80.51;99313.31;5024857;28;20022;-83
2022/10/31 03:14:03;;;;;;;11.45;7.07;;;;;;;12.28;80.71;99318.34;5008667;28;20037;-83
2022/10/31 03:16:46;;;;;;;7.50;5.65;;;;;;;12.45;80.02;99324.44;5004874;28;20017;-83
2022/10/31 03:19:17;;;;;;;7.68;5.85;;;;;;;12.43;80.47;99328.44;5007438;28;20034;-83
2022/10/31 03:21:49;;;;;;;17.52;7.60;;;;;;;10.81;84.85;99327.66;5026865;28;20036;-82
2022/10/31 03:24:15;;;;;;;19.85;8.43;;;;;;;10.20;87.21;99322.16;5023447;28;20057;-82
2022/10/31 03:26:44;;;;;;;13.65;7.20;;;;;;;11.34;84.89;99295.22;5009373;28;20520;-83
2022/10/31 03:29:12;;;;;;;10.48;5.70;;;;;;;12.02;81.66;99308.34;5023654;28;20120;-83
2022/10/31 03:32:02;;;;;;;15.77;6.93;;;;;;;12.22;80.53;99318.53;5000459;28;20056;-82
2022/10/31 03:34:30;;;;;;;10.73;6.93;;;;;;;12.18;80.86;99320.09;5027342;28;20029;-82
2022/10/31 03:36:59;;;;;;;18.02;6.68;;;;;;;12.22;80.44;99319.34;5030761;28;20025;-83
2022/10/31 03:39:26;;;;;;;11.95;6.30;;;;;;;12.26;80.47;99328.50;5027460;28;20072;-83
2022/10/31 03:42:07;;;;;;;9.90;6.38;;;;;;;12.22;80.26;99303.28;5004267;28;20041;-83
2022/10/31 03:44:34;;;;;;;11.32;6.43;;;;;;;12.23;80.16;99320.16;5008414;28;20021;-83
2022/10/31 03:47:01;;;;;;;8.43;6.10;;;;;;;12.14;80.09;99313.59;5027447;28;20326;-83
2022/10/31 03:49:28;;;;;;;9.43;5.28;;;;;;;12.24;80.05;99321.75;5009127;28;20088;-83
2022/10/31 03:52:02;;;;;;;7.68;6.05;;;;;;;12.23;80.07;99322.84;5023815;28;20029;-82
2022/10/31 03:54:33;;;;;;;12.32;7.57;;;;;;;12.27;79.82;99322.09;5008041;28;20511;-83
2022/10/31 03:57:26;;;;;;;10.18;6.68;;;;;;;12.22;80.14;99313.19;5026105;28;20143;-83
2022/10/31 04:00:05;;;;;;;17.05;7.43;;;;;;;11.98;79.78;99315.25;5023499;28;20030;-83
2022/10/31 04:02:33;;;;;;;19.58;8.98;;;;;;;10.27;85.52;99312.97;4997368;28;20044;-82
2022/10/31 04:05:00;;;;;;;13.30;7.55;;;;;;;10.82;86.67;99317.81;5017281;28;20030;-82
2022/10/31 04:07:33;;;;;;;11.70;7.00;;;;;;;11.60;82.18;99310.63;5011317;28;20079;-82
2022/10/31 04:10:01;;;;;;;9.27;6.15;;;;;;;11.69;81.69;99300.38;5010067;28;20064;-83
2022/10/31 04:12:30;;;;;;;10.13;7.10;;;;;;;11.98;80.71;99331.31;5009017;28;20075;-82
2022/10/31 04:14:57;;;;;;;10.77;6.90;;;;;;;12.08;80.42;99331.44;5009082;28;20584;-82
2022/10/31 04:17:27;;;;;;;10.73;6.93;;;;;;;12.04;80.37;99344.50;5011226;28;20027;-83
2022/10/31 04:19:52;;;;;;;10.52;7.47;;;;;;;11.95;80.13;99334.47;5026426;28;20057;-83
2022/10/31 04:22:18;;;;;;;15.10;7.22;;;;;;;11.96;80.04;99344.94;4996946;28;20080;-82
2022/10/31 04:24:43;;;;;;;15.02;8.05;;;;;;;11.94;80.15;99343.56;5011781;28;20111;-83
2022/10/31 04:27:08;;;;;;;12.95;7.53;;;;;;;11.94;80.47;99339.03;5013371;28;20034;-83
2022/10/31 04:29:34;;;;;;;11.57;6.80;;;;;;;11.94;80.80;99328.31;5010174;28;20056;-82
2022/10/31 04:31:59;;;;;;;12.45;7.53;;;;;;;12.13;79.65;99336.88;5012256;28;20032;-83
2022/10/31 04:34:24;;;;;;;13.20;7.40;;;;;;;11.94;79.83;99322.16;4996285;28;20030;-83
2022/10/31 04:36:50;;;;;;;10.52;7.75;;;;;;;12.00;79.74;99327.34;5029698;28;20075;-83
2022/10/31 04:39:15;;;;;;;20.23;10.45;;;;;;;11.05;82.28;99323.06;5012332;28;20037;-83
2022/10/31 04:41:40;;;;;;;15.20;8.05;;;;;;;11.65;81.97;99334.78;5012957;28;20033;-83
2022/10/31 04:44:06;;;;;;;11.85;7.78;;;;;;;11.93;80.23;99332.03;4994938;28;20064;-83
2022/10/31 04:46:31;;;;;;;11.00;6.63;;;;;;;11.76;79.81;99303.69;5028248;28;20021;-83
2022/10/31 04:48:56;;;;;;;17.67;8.90;;;;;;;11.95;79.37;99337.94;5012732;28;20379;-82
2022/10/31 04:51:22;;;;;;;13.32;9.25;;;;;;;11.91;79.84;99342.19;5010369;28;20040;-82
2022/10/31 04:53:47;;;;;;;11.98;8.32;;;;;;;11.94;79.72;99328.31;5026238;28;20041;-83
2022/10/31 04:56:14;;;;;;;29.58;13.68;;;;;;;10.45;83.78;99344.84;5008487;28;20037;-82
2022/10/31 04:58:39;;;;;;;14.00;8.73;;;;;;;11.18;83.50;99349.47;5027367;28;20033;-82
2022/10/31 05:01:05;;;;;;;14.98;9.00;;;;;;;11.58;81.51;99339.47;5025194;28;20048;-82
2022/10/31 05:03:30;;;;;;;13.80;8.30;;;;;;;11.77;80.46;99338.19;5028354;28;20041;-82
2022/10/31 05:05:56;;;;;;;15.02;8.75;;;;;;;11.81;79.97;99339.34;5009930;28;20418;-82
2022/10/31 05:08:21;;;;;;;15.23;8.93;;;;;;;11.70;80.36;99328.75;5009948;28;20055;-83
2022/10/31 05:10:46;;;;;;;17.80;9.15;;;;;;;11.81;79.70;99328.66;5001440;28;20037;-83
2022/10/31 05:13:12;;;;;;;17.25;9.05;;;;;;;11.92;79.36;99335.78;5029045;28;20052;-82
2022/10/31 05:15:37;;;;;;;18.75;9.23;;;;;;;11.90;79.44;99337.88;4994200;28;20033;-82
2022/10/31 05:18:03;;;;;;;15.10;8.77;;;;;;;11.86;79.25;99325.25;5029649;28;20108;-82
2022/10/31 05:20:29;;;;;;;14.32;9.05;;;;;;;11.89;79.04;99335.44;5010295;28;20485;-82
2022/10/31 05:22:57;;;;;;;16.67;9.18;;;;;;;11.79;79.51;99336.13;5029108;28;20963;-82
2022/10/31 05:25:26;;;;;;;21.95;10.70;;;;;;;11.56;79.94;99309.50;5030540;28;20032;-82
2022/10/31 05:27:52;;;;;;;21.00;11.10;;;;;;;11.83;79.50;99337.25;5013734;28;20025;-83
2022/10/31 05:30:24;;;;;;;15.75;9.73;;;;;;;11.75;79.84;99337.63;5024095;28;20042;-82
2022/10/31 05:32:50;;;;;;;19.50;10.07;;;;;;;11.67;79.50;99323.88;5007365;28;20034;-82
2022/10/31 05:35:18;;;;;;;16.90;11.20;;;;;;;11.69;79.65;99338.63;5008094;28;20034;-82
2022/10/31 05:37:44;;;;;;;20.02;11.32;;;;;;;11.68;79.48;99318.28;5025662;28;20474;-83
2022/10/31 05:40:12;;;;;;;19.33;10.32;;;;;;;11.69;79.33;99330.59;5025217;28;20030;-83
2022/10/31 05:42:42;;;;;;;19.10;10.82;;;;;;;11.70;79.80;99342.94;5010835;28;20041;-82
2022/10/31 05:45:09;;;;;;;18.92;10.95;;;;;;;11.54;80.09;99316.97;5023780;28;20168;-82
2022/10/31 05:47:34;;;;;;;21.02;12.10;;;;;;;11.69;79.72;99333.28;5008743;28;20025;-82
2022/10/31 05:50:00;;;;;;;20.05;10.77;;;;;;;11.65;79.40;99329.44;5008047;28;20029;-83
2022/10/31 05:52:25;;;;;;;22.00;11.95;;;;;;;11.53;80.22;99322.56;5005672;28;20063;-82
2022/10/31 05:54:50;;;;;;;24.00;12.77;;;;;;;11.74;79.58;99319.16;5024716;28;20030;-81
2022/10/31 05:57:16;;;;;;;22.85;11.57;;;;;;;11.57;80.18;99331.72;5012465;28;20502;-83
2022/10/31 05:59:41;;;;;;;30.95;14.65;;;;;;;11.04;80.64;99337.47;5027712;28;20042;-83
2022/10/31 06:02:06;;;;;;;23.55;12.73;;;;;;;11.44;80.80;99340.84;5025379;28;20047;-82
2022/10/31 06:04:32;;;;;;;32.58;12.70;;;;;;;10.94;82.10;99332.72;5027449;28;20025;-83
2022/10/31 06:06:57;;;;;;;31.83;16.60;;;;;;;9.66;85.47;99336.63;5005907;28;20046;-83
2022/10/31 06:09:22;;;;;;;22.92;12.63;;;;;;;10.29;86.46;99340.22;4994801;28;20146;-82
2022/10/31 06:11:48;;;;;;;39.47;18.15;;;;;;;10.35;83.54;99341.94;5022346;28;20174;-82
2022/10/31 06:14:13;;;;;;;21.83;11.93;;;;;;;11.15;81.93;99333.91;5028899;28;20072;-83
2022/10/31 06:16:39;;;;;;;22.23;10.90;;;;;;;11.40;80.72;99360.28;5008730;28;20025;-82
2022/10/31 06:19:04;;;;;;;22.42;11.95;;;;;;;11.19;80.41;99303.00;5026372;28;20029;-82
2022/10/31 06:21:29;;;;;;;25.95;11.88;;;;;;;11.19;81.13;99338.56;5031219;28;20240;-83
2022/10/31 06:23:55;;;;;;;20.95;11.25;;;;;;;11.26;80.36;99325.03;5028101;28;20500;-83
2022/10/31 06:26:20;;;;;;;24.30;12.25;;;;;;;11.33;80.92;99349.75;5026803;28;20471;-83
2022/10/31 06:28:45;;;;;;;25.55;14.52;;;;;;;10.62;82.25;99349.44;5012522;28;20044;-82
2022/10/31 06:31:11;;;;;;;26.40;12.13;;;;;;;11.29;81.27;99356.63;4988770;28;20025;-83
2022/10/31 06:33:36;;;;;;;17.52;11.35;;;;;;;11.21;80.98;99357.00;5029490;28;20025;-82
2022/10/31 06:36:02;;;;;;;19.75;10.73;;;;;;;11.30;80.55;99340.34;5009456;28;20041;-83
2022/10/31 06:38:27;;;;;;;20.52;10.93;;;;;;;11.27;80.46;99342.66;5026825;28;20054;-83
2022/10/31 06:40:54;;;;;;;20.60;10.80;;;;;;;11.57;80.36;99363.78;5027495;28;20072;-83
2022/10/31 06:43:20;;;;;;;23.00;10.93;;;;;;;11.55;80.26;99360.56;5029380;28;20099;-83
2022/10/31 06:45:46;;;;;;;20.45;11.40;;;;;;;11.46;80.13;99346.78;5006208;28;20054;-82
2022/10/31 06:48:11;;;;;;;19.75;11.07;;;;;;;11.47;80.12;99343.03;5007502;28;20159;-82
2022/10/31 06:50:37;;;;;;;19.75;12.32;;;;;;;11.53;79.76;99363.44;5009595;28;20453;-82
2022/10/31 06:53:02;;;;;;;19.50;11.13;;;;;;;11.46;80.28;99349.44;5006845;28;20040;-82
2022/10/31 06:55:28;;;;;;;24.02;12.20;;;;;;;11.44;80.56;99369.44;5026425;28;20140;-82
2022/10/31 06:57:55;;;;;;;23.10;11.30;;;;;;;11.19;81.88;99373.28;5024166;28;20106;-82
2022/10/31 07:00:20;;;;;;;25.20;12.00;;;;;;;11.46;80.68;99368.16;5027168;28;20021;-82
2022/10/31 07:02:56;;;;;;;18.73;11.20;;;;;;;11.53;80.63;99368.00;4978001;28;20053;-82
2022/10/31 07:05:21;;;;;;;19.60;11.95;;;;;;;11.20;81.89;99371.44;4994258;28;20068;-82
2022/10/31 07:07:47;;;;;;;25.08;11.60;;;;;;;11.38;81.52;99362.41;5025718;28;20060;-82
2022/10/31 07:10:12;;;;;;;20.35;10.93;;;;;;;11.59;80.63;99380.41;4999526;28;20170;-82
2022/10/31 07:12:38;;;;;;;19.58;11.32;;;;;;;11.28;80.90;99342.47;5026452;28;20834;-82
2022/10/31 07:15:04;;;;;;;19.88;11.68;;;;;;;11.62;81.04;99387.94;5011585;28;20041;-82
2022/10/31 07:17:29;;;;;;;26.58;15.07;;;;;;;11.32;82.22;99385.53;5021919;28;20036;-82
2022/10/31 07:19:54;;;;;;;21.77;10.77;;;;;;;11.33;82.35;99379.16;5024862;28;20036;-82
2022/10/31 07:22:20;;;;;;;19.75;10.55;;;;;;;11.20;82.44;99366.09;5009511;28;20048;-82
2022/10/31 07:24:45;;;;;;;20.27;11.15;;;;;;;11.47;82.16;99375.09;5008410;28;20027;-82
2022/10/31 07:27:10;;;;;;;16.55;10.45;;;;;;;11.50;81.66;99353.25;4997551;28;20041;-83
2022/10/31 07:29:36;;;;;;;21.13;10.60;;;;;;;11.70;81.09;99376.88;5004870;28;20025;-82
2022/10/31 07:32:01;;;;;;;21.75;12.05;;;;;;;11.55;81.69;99349.84;5010518;28;20164;-83
2022/10/31 07:34:28;;;;;;;21.80;10.90;;;;;;;11.73;81.04;99361.13;5005598;28;20037;-82
2022/10/31 07:36:54;;;;;;;21.17;10.80;;;;;;;11.87;80.87;99373.16;5023097;28;20536;-82
2022/10/31 07:39:19;;;;;;;17.17;10.02;;;;;;;11.94;80.57;99371.13;5004175;28;20117;-82
2022/10/31 07:41:44;;;;;;;29.92;13.60;;;;;;;11.41;84.01;99385.94;4992065;28;20033;-82
2022/10/31 07:44:10;;;;;;;20.65;10.45;;;;;;;11.50;83.19;99381.84;5027116;28;20037;-82
2022/10/31 07:46:35;;;;;;;17.63;9.73;;;;;;;11.75;81.17;99361.72;5027643;28;20040;-82
2022/10/31 07:49:00;;;;;;;16.58;9.75;;;;;;;11.81;80.85;99358.09;5026903;28;20022;-82
2022/10/31 07:51:26;;;;;;;18.20;8.98;;;;;;;11.41;84.94;99370.72;5016884;28;20026;-82
2022/10/31 07:53:51;;;;;;;16.73;9.80;;;;;;;11.81;81.68;99360.75;5024783;28;20541;-82
2022/10/31 07:56:17;;;;;;;37.95;21.77;;;;;;;11.49;85.33;99389.03;5024858;28;22163;-82
2022/10/31 07:58:42;;;;;;;16.35;8.80;;;;;;;11.74;82.65;99375.31;5003234;28;20042;-82
2022/10/31 08:01:07;;;;;;;25.88;13.85;;;;;;;11.98;81.94;99382.13;5007389;28;20035;-82
2022/10/31 08:03:33;;;;;;;21.38;12.90;;;;;;;11.28;88.39;99365.69;5024315;28;20489;-82
2022/10/31 08:05:58;;;;;;;19.63;11.60;;;;;;;11.50;86.68;99390.69;5004754;28;21632;-81
2022/10/31 08:08:24;;;;;;;20.73;9.73;;;;;;;11.94;82.51;99384.50;5020336;28;20037;-83
2022/10/31 08:10:49;;;;;;;18.50;10.13;;;;;;;12.08;81.79;99384.16;5019059;28;20134;-82
2022/10/31 08:13:14;;;;;;;24.55;13.38;;;;;;;11.94;83.46;99381.81;5020819;28;20746;-82
2022/10/31 08:15:41;;;;;;;36.58;17.40;;;;;;;11.40;88.34;99382.47;5005690;28;20053;-82
2022/10/31 08:18:14;;;;;;;18.90;11.15;;;;;;;11.75;84.55;99372.41;5021415;28;20032;-82
2022/10/31 08:20:41;;;;;;;20.80;11.45;;;;;;;11.71;85.34;99373.94;5019684;28;20109;-82
2022/10/31 08:23:06;;;;;;;22.60;12.27;;;;;;;11.87;84.26;99380.34;5016686;28;20074;-81
2022/10/31 08:25:34;;;;;;;16.77;10.13;;;;;;;11.94;82.63;99365.78;5007585;28;20065;-82
2022/10/31 08:28:00;;;;;;;17.50;10.63;;;;;;;12.09;82.16;99370.53;5022018;28;20858;-82
2022/10/31 08:30:28;;;;;;;18.98;10.82;;;;;;;11.95;85.63;99383.44;5007725;28;20075;-82
2022/10/31 08:33:05;;;;;;;33.22;16.23;;;;;;;11.74;87.72;99378.00;5001932;28;20457;-82
2022/10/31 08:35:31;;;;;;;33.83;17.33;;;;;;;11.67;90.30;99388.03;5023004;28;20414;-82
2022/10/31 08:37:57;;;;;;;42.35;18.75;;;;;;;11.43;91.74;99365.13;5008593;28;20091;-82
2022/10/31 08:40:24;;;;;;;36.35;19.23;;;;;;;11.71;87.58;99367.78;5013035;28;20026;-82
2022/10/31 08:43:08;;;;;;;45.30;21.35;;;;;;;11.46;93.95;99384.19;5027035;28;20524;-82
2022/10/31 08:45:34;;;;;;;39.72;18.05;;;;;;;11.60;92.03;99377.47;5026423;28;20058;-82
2022/10/31 08:48:01;;;;;;;25.20;14.18;;;;;;;11.51;91.60;99362.88;5028390;28;20604;-82
2022/10/31 08:50:29;;;;;;;17.15;10.55;;;;;;;11.85;86.09;99372.59;5027501;28;20091;-82
2022/10/31 08:53:00;;;;;;;17.60;10.43;;;;;;;12.08;84.55;99368.91;5012381;28;20037;-82
2022/10/31 08:55:25;;;;;;;21.13;11.73;;;;;;;12.00;86.09;99369.31;5031016;28;20026;-82
2022/10/31 08:57:57;;;;;;;20.30;10.27;;;;;;;11.84;86.27;99346.06;5029812;28;20436;-82
2022/10/31 09:00:23;;;;;;;43.08;21.00;;;;;;;11.96;86.78;99344.13;5030943;28;20128;-82
2022/10/31 09:02:55;;;;;;;17.25;9.77;;;;;;;12.25;84.92;99377.75;5030706;28;20477;-82
2022/10/31 09:05:20;;;;;;;41.10;21.10;;;;;;;11.95;89.04;99334.47;4992382;28;20034;-83
2022/10/31 09:07:45;;;;;;;26.83;16.05;;;;;;;12.03;88.54;99339.41;5024524;28;20447;-83
2022/10/31 09:10:11;;;;;;;14.18;10.65;;;;;;;12.22;87.41;99361.34;4995684;28;20500;-82
2022/10/31 09:12:36;;;;;;;48.75;23.70;;;;;;;12.17;88.28;99342.53;5025825;28;20640;-83
2022/10/31 09:15:02;;;;;;;42.85;23.27;;;;;;;12.27;91.00;99358.75;4998890;28;20116;-83
2022/10/31 09:17:28;;;;;;;18.45;10.70;;;;;;;12.37;85.09;99349.00;5015068;28;20044;-83
2022/10/31 09:19:54;;;;;;;21.85;11.98;;;;;;;12.55;85.10;99355.91;5011735;28;20059;-82
2022/10/31 09:22:19;;;;;;;35.47;17.98;;;;;;;12.64;85.82;99349.88;5011655;28;20029;-83
2022/10/31 09:24:45;;;;;;;37.05;21.77;;;;;;;12.64;87.65;99333.81;5010936;28;20336;-83
2022/10/31 09:27:10;;;;;;;40.00;20.30;;;;;;;12.37;89.77;99321.41;4997184;28;21106;-82
2022/10/31 09:29:35;;;;;;;42.08;22.67;;;;;;;12.56;91.23;99354.84;5024865;28;20030;-83
2022/10/31 09:32:01;;;;;;;40.92;19.75;;;;;;;12.92;88.71;99350.72;5024234;28;20037;-83
2022/10/31 09:34:26;;;;;;;29.23;17.73;;;;;;;12.95;88.50;99356.41;5028763;28;20044;-83
2022/10/31 09:36:52;;;;;;;40.30;19.27;;;;;;;12.93;88.81;99345.09;5011993;28;21567;-83
2022/10/31 09:39:18;;;;;;;35.78;18.02;;;;;;;12.70;90.39;99340.03;5025888;28;20429;-83
2022/10/31 09:42:04;;;;;;;33.17;17.05;;;;;;;13.12;88.34;99332.22;5028476;28;20025;-83
2022/10/31 09:44:54;;;;;;;39.63;17.80;;;;;;;12.99;89.62;99343.31;5013355;28;20409;-83
2022/10/31 09:47:43;;;;;;;35.40;18.52;;;;;;;13.47;87.47;99344.09;5026079;28;20029;-83
2022/10/31 09:50:26;;;;;;;36.10;18.92;;;;;;;13.36;86.55;99342.38;5023498;28;20034;-82
2022/10/31 09:53:08;;;;;;;37.95;19.92;;;;;;;13.10;87.25;99329.81;5025114;28;20036;-82
2022/10/31 09:55:38;;;;;;;40.08;18.75;;;;;;;13.46;85.77;99353.19;5005518;28;20025;-83
2022/10/31 09:58:05;;;;;;;35.50;19.60;;;;;;;13.18;86.55;99318.63;5005396;28;20025;-83
2022/10/31 10:00:32;;;;;;;42.72;19.85;;;;;;;13.16;87.87;99318.06;5020686;28;20128;-82
2022/10/31 10:03:31;;;;;;;41.42;19.60;;;;;;;13.34;86.43;99332.97;5009175;28;20033;-83
2022/10/31 10:06:19;;;;;;;38.70;19.33;;;;;;;13.41;85.45;99330.91;5007710;28;20044;-83
2022/10/31 10:08:44;;;;;;;31.92;18.08;;;;;;;13.37;85.98;99317.19;5019170;28;20461;-83
2022/10/31 10:11:19;;;;;;;38.25;18.02;;;;;;;13.35;86.87;99334.59;5004600;28;20098;-83
2022/10/31 10:13:50;;;;;;;28.85;17.08;;;;;;;13.46;86.21;99330.94;5022668;28;20044;-83
2022/10/31 10:16:40;;;;;;;29.33;17.42;;;;;;;13.72;84.61;99330.06;5021546;28;20029;-82
2022/10/31 10:19:34;;;;;;;41.05;22.63;;;;;;;13.42;87.16;99333.31;5020932;28;20033;-82
2022/10/31 10:22:18;;;;;;;33.78;15.82;;;;;;;13.64;84.58;99319.81;5025853;28;20060;-82
2022/10/31 10:25:00;;;;;;;46.28;26.00;;;;;;;13.54;87.02;99317.06;5028539;28;20091;-82
2022/10/31 10:27:44;;;;;;;51.00;25.73;;;;;;;13.23;89.80;99325.91;5022152;28;20025;-83
2022/10/31 10:30:09;;;;;;;48.42;25.35;;;;;;;13.41;87.86;99322.88;5023854;28;20029;-82
2022/10/31 10:32:59;;;;;;;56.90;26.55;;;;;;;13.22;89.46;99309.00;5021474;28;20024;-82
2022/10/31 10:35:51;;;;;;;38.22;21.10;;;;;;;13.41;88.29;99312.91;5024788;28;20029;-82
2022/10/31 10:38:33;;;;;;;42.33;20.85;;;;;;;13.63;87.52;99306.69;5022967;28;20041;-83
2022/10/31 10:41:01;;;;;;;51.90;24.88;;;;;;;13.53;88.51;99310.91;5004526;28;20041;-82
2022/10/31 10:43:34;;;;;;;35.60;18.98;;;;;;;13.96;85.31;99307.16;5003576;28;20041;-83
2022/10/31 10:49:04;;;;;;;55.33;27.58;;;;;;;13.44;88.76;99285.59;5025495;28;20392;-82
2022/10/31 10:51:47;;;;;;;55.30;25.73;;;;;;;13.58;88.55;99291.34;5008015;28;20033;-82
2022/10/31 10:54:40;;;;;;;51.33;28.50;;;;;;;13.57;89.13;99296.94;5021696;28;20029;-82
2022/10/31 10:57:43;;;;;;;57.08;28.67;;;;;;;13.74;88.63;99295.75;5026372;28;20037;-84
2022/10/31 11:00:19;;;;;;;50.42;25.15;;;;;;;13.94;87.45;99284.34;5019652;28;20074;-84
2022/10/31 11:02:45;;;;;;;59.38;28.92;;;;;;;14.12;85.98;99276.69;5024420;28;20029;-83
2022/10/31 11:05:22;;;;;;;38.95;20.85;;;;;;;14.41;84.39;99279.81;5000450;28;20068;-83
2022/10/31 11:07:47;;;;;;;64.50;30.55;;;;;;;13.94;86.89;99266.38;5023108;28;20029;-82
2022/10/31 11:10:14;;;;;;;57.90;30.73;;;;;;;13.91;87.79;99276.81;5004139;28;20481;-83
2022/10/31 11:12:41;;;;;;;52.13;23.50;;;;;;;14.16;86.72;99271.59;5022497;28;20072;-82
2022/10/31 11:15:20;;;;;;;40.17;23.02;;;;;;;14.26;86.41;99271.66;5024727;28;20040;-83
2022/10/31 11:17:50;;;;;;;53.10;29.90;;;;;;;14.29;85.58;99252.34;5027114;28;20037;-83
2022/10/31 11:20:15;;;;;;;39.42;20.50;;;;;;;14.62;84.60;99259.97;5025368;28;20489;-83
2022/10/31 11:22:43;;;;;;;50.15;24.00;;;;;;;14.32;86.64;99259.88;5025959;28;20025;-84
2022/10/31 11:25:25;;;;;;;54.75;27.33;;;;;;;14.46;86.43;99271.75;5023914;28;20026;-83
2022/10/31 11:28:04;;;;;;;62.70;30.08;;;;;;;14.40;86.15;99224.47;5019464;28;20440;-83
2022/10/31 11:30:34;;;;;;;54.58;28.90;;;;;;;14.31;86.81;99227.94;5023488;28;20037;-83
2022/10/31 11:33:00;;;;;;;54.83;29.02;;;;;;;14.39;86.59;99233.59;5019760;28;20116;-83
2022/10/31 11:35:26;;;;;;;34.40;20.15;;;;;;;14.79;85.31;99249.81;5019526;28;20108;-83